Time;durP1;ratioP1;P1;durP2;ratioP2;P2;SDS_P1;SDS_P2;PMS_P1;PMS_P2;Temp;Humidity;BMP_temperature;BMP_pressure;BME280_temperature;BME280_humidity;BME280_pressure;Samples;Min_cycle;Max_cycle;Signal;HPM_P1;HPM_P2
2021/12/04 00:00:54;;;;;;;0.30;0.30;;;;;;;12.52;48.95;99858.16;5055142;28;20021;-58
2021/12/04 00:03:20;;;;;;;0.40;0.40;;;;;;;12.52;48.70;99852.78;5055127;28;20021;-58
2021/12/04 00:05:53;;;;;;;0.50;0.50;;;;;;;12.53;49.05;99855.31;5053830;28;20455;-58
2021/12/04 00:08:25;;;;;;;0.40;0.30;;;;;;;12.53;49.25;99849.09;5041099;28;20482;-57
2021/12/04 00:10:51;;;;;;;0.60;0.60;;;;;;;12.54;49.07;99840.88;5042955;28;20386;-57
2021/12/04 00:13:16;;;;;;;0.32;0.28;;;;;;;12.50;48.69;99828.78;5042729;28;20028;-58
2021/12/04 00:15:42;;;;;;;0.60;0.57;;;;;;;12.55;48.81;99825.59;5042394;28;20079;-58
2021/12/04 00:18:07;;;;;;;0.68;0.43;;;;;;;12.51;48.49;99819.72;5042601;28;20479;-58
2021/12/04 00:20:33;;;;;;;0.60;0.60;;;;;;;12.51;49.01;99808.13;5042438;28;20028;-58
2021/12/04 00:22:59;;;;;;;1.00;0.50;;;;;;;12.52;48.85;99799.06;5043932;28;20501;-58
2021/12/04 00:25:25;;;;;;;0.35;0.35;;;;;;;12.48;48.28;99793.19;5026880;28;20389;-58
2021/12/04 00:27:51;;;;;;;0.68;0.52;;;;;;;12.48;48.92;99787.00;5041687;28;20100;-58
2021/12/04 00:30:17;;;;;;;0.82;0.50;;;;;;;12.47;48.59;99774.56;5042391;28;20108;-58
2021/12/04 00:32:52;;;;;;;0.60;0.60;;;;;;;12.47;48.91;99771.88;5040957;28;20036;-58
2021/12/04 00:35:23;;;;;;;1.45;0.40;;;;;;;12.43;49.02;99770.50;5043390;28;20032;-58
2021/12/04 00:51:25;;;;;;;0.77;0.55;;;;;;;12.35;49.40;99770.50;5039453;28;20036;-58
2021/12/04 00:53:54;;;;;;;0.65;0.60;;;;;;;12.35;48.38;99767.81;5043474;28;20025;-58
2021/12/04 00:56:20;;;;;;;0.30;0.30;;;;;;;12.30;48.69;99762.13;5043758;28;20037;-58
2021/12/04 00:58:46;;;;;;;1.52;0.38;;;;;;;12.26;49.20;99745.50;5042374;28;20025;-58
2021/12/04 01:01:16;;;;;;;0.47;0.30;;;;;;;12.22;50.09;99742.34;5040435;28;20092;-57
2021/12/04 01:03:42;;;;;;;0.82;0.50;;;;;;;12.15;49.32;99735.09;5034114;28;20088;-57
2021/12/04 01:06:07;;;;;;;6.68;1.30;;;;;;;12.11;48.96;99731.91;5034250;28;20048;-57
2021/12/04 01:08:33;;;;;;;0.68;0.60;;;;;;;12.10;49.04;99735.59;5037292;28;20513;-57
2021/12/04 01:10:58;;;;;;;0.60;0.20;;;;;;;12.08;49.96;99737.63;5032651;28;20029;-57
2021/12/04 01:13:23;;;;;;;0.50;0.50;;;;;;;12.02;49.83;99722.16;5033810;28;20032;-57
2021/12/04 01:15:49;;;;;;;4.85;0.68;;;;;;;11.98;49.77;99717.28;5034022;28;20363;-57
2021/12/04 01:18:14;;;;;;;0.82;0.50;;;;;;;11.91;50.37;99719.81;5032445;28;20036;-57
2021/12/04 01:20:40;;;;;;;0.90;0.50;;;;;;;11.87;49.95;99717.59;5033601;28;20044;-57
2021/12/04 01:23:06;;;;;;;0.80;0.80;;;;;;;11.85;50.34;99714.25;5033671;28;20032;-57
2021/12/04 01:25:31;;;;;;;0.43;0.43;;;;;;;11.86;49.68;99721.28;5033271;28;20034;-58
2021/12/04 01:27:57;;;;;;;0.57;0.57;;;;;;;11.86;49.99;99730.19;5032179;28;20036;-58
2021/12/04 01:30:23;;;;;;;0.38;0.38;;;;;;;11.86;49.93;99726.66;5032670;28;20057;-58
2021/12/04 01:32:48;;;;;;;1.05;0.43;;;;;;;11.85;50.00;99731.19;5036537;28;20480;-58
2021/12/04 01:35:14;;;;;;;0.22;0.22;;;;;;;11.85;50.52;99728.50;5053893;28;20470;-59
2021/12/04 01:37:39;;;;;;;1.85;0.20;;;;;;;11.82;50.18;99734.19;5052103;28;20036;-58
2021/12/04 01:40:05;;;;;;;1.30;0.30;;;;;;;11.89;50.15;99735.19;5053412;28;20072;-58
2021/12/04 01:42:34;;;;;;;0.68;0.20;;;;;;;11.93;49.86;99733.88;5053355;28;20117;-58
2021/12/04 01:45:00;;;;;;;1.17;0.38;;;;;;;11.95;50.62;99731.06;5051910;28;20036;-58
2021/12/04 01:47:25;;;;;;;0.77;0.32;;;;;;;11.97;50.09;99732.56;5053413;28;20029;-58
2021/12/04 01:49:53;;;;;;;0.52;0.30;;;;;;;11.97;51.03;99729.88;5053481;28;20029;-58
2021/12/04 01:52:18;;;;;;;0.30;0.30;;;;;;;12.02;50.58;99734.75;5053601;28;20074;-58
2021/12/04 01:54:46;;;;;;;0.32;0.32;;;;;;;12.03;49.82;99728.38;5053451;28;20029;-58
2021/12/04 01:57:14;;;;;;;0.80;0.40;;;;;;;12.05;50.02;99729.88;5053085;28;20040;-58
2021/12/04 01:59:41;;;;;;;0.35;0.30;;;;;;;12.02;50.66;99719.47;5052405;28;20059;-59
2021/12/04 02:02:06;;;;;;;0.65;0.45;;;;;;;12.03;50.05;99723.81;5053958;28;20037;-58
2021/12/04 02:04:31;;;;;;;0.70;0.52;;;;;;;12.01;50.48;99715.09;5055804;28;20419;-59
2021/12/04 02:06:57;;;;;;;2.17;0.50;;;;;;;11.99;50.15;99709.06;5054577;28;20058;-58
2021/12/04 02:09:22;;;;;;;0.63;0.50;;;;;;;12.01;50.47;99704.38;5037117;28;20025;-59
2021/12/04 02:11:47;;;;;;;0.55;0.40;;;;;;;11.95;50.02;99699.66;5036060;28;20029;-59
2021/12/04 02:14:13;;;;;;;0.90;0.28;;;;;;;12.00;50.78;99707.25;5036775;28;20025;-59
2021/12/04 02:16:38;;;;;;;1.35;0.50;;;;;;;11.98;50.56;99704.69;5035793;28;20434;-58
2021/12/04 02:19:04;;;;;;;0.63;0.22;;;;;;;12.00;49.68;99707.25;5035733;28;20471;-59
2021/12/04 02:21:31;;;;;;;0.35;0.30;;;;;;;12.01;50.38;99701.69;5035797;28;20104;-58
2021/12/04 02:23:56;;;;;;;1.35;0.30;;;;;;;11.99;50.36;99701.03;5036871;28;20470;-58
2021/12/04 02:26:22;;;;;;;0.38;0.30;;;;;;;12.02;50.52;99698.00;5036589;28;20104;-58
2021/12/04 02:28:47;;;;;;;0.45;0.30;;;;;;;12.02;51.02;99695.31;5035587;28;20029;-58
2021/12/04 02:31:13;;;;;;;0.30;0.30;;;;;;;12.02;50.66;99686.44;5036685;28;20080;-58
2021/12/04 02:33:38;;;;;;;0.50;0.20;;;;;;;12.03;50.78;99688.94;5036965;28;20025;-57
2021/12/04 02:36:06;;;;;;;0.13;0.13;;;;;;;12.02;51.32;99679.22;5037081;28;20021;-58
2021/12/04 02:38:31;;;;;;;0.85;0.20;;;;;;;12.01;51.03;99677.53;5036994;28;20037;-58
2021/12/04 02:41:00;;;;;;;1.83;0.60;;;;;;;12.00;50.63;99669.66;5035247;28;20418;-58
2021/12/04 02:43:26;;;;;;;0.55;0.40;;;;;;;11.99;50.29;99674.19;5036766;28;20057;-58
2021/12/04 02:45:52;;;;;;;0.55;0.40;;;;;;;11.97;50.59;99665.47;5036417;28;20029;-58
2021/12/04 02:48:18;;;;;;;0.75;0.43;;;;;;;11.98;50.58;99656.41;5036459;28;20389;-59
2021/12/04 02:50:43;;;;;;;0.65;0.10;;;;;;;12.00;51.17;99651.72;5036335;28;20104;-57
2021/12/04 02:53:09;;;;;;;0.82;0.40;;;;;;;12.01;50.32;99639.97;5036427;28;20493;-57
2021/12/04 02:55:35;;;;;;;0.30;0.28;;;;;;;12.01;50.54;99644.47;5036230;28;20029;-57
2021/12/04 02:58:00;;;;;;;0.63;0.30;;;;;;;11.97;50.95;99622.53;5036048;28;20040;-57
2021/12/04 03:00:27;;;;;;;0.65;0.20;;;;;;;11.99;50.63;99615.16;5036228;28;20029;-57
2021/12/04 03:02:53;;;;;;;0.52;0.28;;;;;;;11.96;51.46;99614.63;5036157;28;20033;-57
2021/12/04 03:05:26;;;;;;;0.65;0.32;;;;;;;11.96;51.14;99611.94;5036271;28;20470;-57
2021/12/04 03:07:52;;;;;;;;;;;;;;;12.00;50.78;99606.09;5036782;28;20025;-56
2021/12/04 03:10:17;;;;;;;0.10;0.10;;;;;;;12.03;50.48;99607.59;5034872;28;20386;-57
2021/12/04 03:12:42;;;;;;;0.73;0.10;;;;;;;12.03;50.49;99604.91;5036049;28;20025;-58
2021/12/04 03:15:08;;;;;;;0.30;0.20;;;;;;;12.09;50.72;99621.16;5035141;28;20030;-57
2021/12/04 03:17:34;;;;;;;0.20;0.20;;;;;;;12.12;51.31;99615.47;5035923;28;20474;-57
2021/12/04 03:19:59;;;;;;;0.57;0.30;;;;;;;12.16;50.59;99614.13;5036066;28;20038;-57
2021/12/04 03:22:25;;;;;;;1.35;0.22;;;;;;;12.18;50.96;99614.78;5034965;28;20025;-57
2021/12/04 03:24:52;;;;;;;0.35;0.25;;;;;;;12.19;51.21;99605.75;5035789;28;20474;-57
2021/12/04 03:27:18;;;;;;;0.30;0.20;;;;;;;12.17;51.14;99597.00;5035815;28;20048;-56
2021/12/04 03:29:59;;;;;;;0.63;0.13;;;;;;;12.21;50.82;99597.50;5035959;28;20091;-57
2021/12/04 03:43:01;;;;;;;0.20;0.20;;;;;;;12.21;51.08;99581.41;5035462;28;20064;-57
2021/12/04 03:45:26;;;;;;;2.05;0.20;;;;;;;12.22;50.72;99572.34;5034362;28;20057;-57
2021/12/04 03:47:56;;;;;;;0.20;0.20;;;;;;;12.23;50.76;99582.06;5035492;28;20060;-57
2021/12/04 03:50:21;;;;;;;0.55;0.20;;;;;;;12.23;50.85;99574.84;5035370;28;20032;-57
2021/12/04 03:52:47;;;;;;;0.13;0.10;;;;;;;12.25;50.93;99580.06;5035511;28;20021;-57
2021/12/04 03:55:12;;;;;;;0.25;0.20;;;;;;;12.26;50.42;99579.88;5035179;28;20463;-57
2021/12/04 03:57:44;;;;;;;0.20;0.20;;;;;;;12.28;50.39;99577.84;5035148;28;20485;-57
2021/12/04 04:00:12;;;;;;;0.10;0.10;;;;;;;12.31;50.86;99578.53;5035252;28;20036;-57
2021/12/04 04:02:37;;;;;;;0.25;0.25;;;;;;;12.35;50.98;99577.19;5033782;28;20390;-57
2021/12/04 04:05:02;;;;;;;0.22;0.15;;;;;;;12.38;50.50;99571.47;5033891;28;20036;-57
2021/12/04 04:07:28;;;;;;;0.35;0.17;;;;;;;12.40;50.29;99572.13;5035003;28;20122;-57
2021/12/04 04:09:53;;;;;;;0.50;0.20;;;;;;;12.42;51.03;99559.38;5034812;28;20033;-57
2021/12/04 04:12:18;;;;;;;0.20;0.20;;;;;;;12.43;51.20;99555.66;5034944;28;20037;-57
2021/12/04 04:14:44;;;;;;;1.27;0.30;;;;;;;12.44;50.92;99560.88;5034960;28;20021;-57
2021/12/04 04:17:10;;;;;;;0.10;0.10;;;;;;;12.46;51.01;99558.00;5033761;28;20456;-57
2021/12/04 04:19:35;;;;;;;0.52;0.20;;;;;;;12.42;51.03;99540.59;5033499;28;20037;-57
2021/12/04 04:22:01;;;;;;;0.13;0.13;;;;;;;12.45;50.51;99551.00;5034856;28;20363;-58
2021/12/04 04:24:28;;;;;;;0.30;0.10;;;;;;;12.44;50.43;99552.84;5034538;28;20030;-57
2021/12/04 04:26:53;;;;;;;0.65;0.30;;;;;;;12.45;51.31;99559.03;5032065;28;20470;-57
2021/12/04 04:29:19;;;;;;;0.35;0.30;;;;;;;12.41;50.72;99550.50;5034787;28;20033;-57
2021/12/04 04:31:46;;;;;;;1.13;0.32;;;;;;;12.46;50.34;99555.31;5016993;28;20029;-57
2021/12/04 04:34:19;;;;;;;0.40;0.20;;;;;;;12.48;51.36;99556.00;5033206;28;20056;-57
2021/12/04 04:36:56;;;;;;;0.32;0.10;;;;;;;12.48;51.23;99556.00;5034407;28;20029;-57
2021/12/04 05:14:31;;;;;;;1.67;0.60;;;;;;;12.50;50.78;99533.34;5034054;28;20037;-57
2021/12/04 05:17:05;;;;;;;0.22;0.22;;;;;;;12.54;50.61;99531.13;5032528;28;20394;-57
2021/12/04 05:19:43;;;;;;;1.77;0.73;;;;;;;12.56;51.43;99521.06;5032587;28;20493;-57
2021/12/04 05:22:11;;;;;;;2.85;0.30;;;;;;;12.58;51.30;99519.88;5034024;28;20394;-57
2021/12/04 05:24:36;;;;;;;0.50;0.38;;;;;;;12.59;50.44;99534.97;5033404;28;20026;-57
2021/12/04 05:27:02;;;;;;;0.57;0.57;;;;;;;12.62;51.21;99534.63;5032943;28;20515;-57
2021/12/04 05:29:27;;;;;;;0.17;0.17;;;;;;;12.64;51.62;99540.69;5034190;28;20121;-57
2021/12/04 05:31:53;;;;;;;0.35;0.30;;;;;;;12.65;51.11;99528.06;5033857;28;20025;-57
2021/12/04 05:34:18;;;;;;;0.30;0.30;;;;;;;12.66;51.00;99527.06;5033923;28;20029;-57
2021/12/04 05:36:44;;;;;;;1.13;0.47;;;;;;;12.65;51.11;99528.06;5033128;28;20025;-57
2021/12/04 05:39:10;;;;;;;0.20;0.20;;;;;;;12.67;50.90;99518.00;5033780;28;20050;-57
2021/12/04 05:41:36;;;;;;;0.32;0.32;;;;;;;12.67;50.83;99504.56;5033675;28;20025;-57
2021/12/04 05:44:05;;;;;;;0.50;0.40;;;;;;;12.64;51.45;99497.69;5033673;28;20025;-57
2021/12/04 05:46:36;;;;;;;0.52;0.40;;;;;;;12.68;50.47;99508.91;5033733;28;20040;-57
2021/12/04 05:49:07;;;;;;;1.30;0.60;;;;;;;12.69;51.17;99505.22;5033497;28;20091;-57
2021/12/04 05:54:02;;;;;;;0.40;0.40;;;;;;;12.67;51.68;99491.94;5033837;28;20478;-57
2021/12/04 05:56:29;;;;;;;0.40;0.40;;;;;;;12.69;51.73;99499.84;5033602;28;20027;-58
2021/12/04 05:58:58;;;;;;;0.80;0.40;;;;;;;12.69;51.29;99499.84;5033883;28;20482;-57
2021/12/04 06:01:25;;;;;;;0.30;0.30;;;;;;;12.69;51.81;99489.09;5033526;28;20029;-58
2021/12/04 06:03:51;;;;;;;0.30;0.30;;;;;;;12.70;50.54;99496.16;5033164;28;20116;-57
2021/12/04 06:06:17;;;;;;;0.73;0.40;;;;;;;12.71;50.80;99492.44;5033729;28;20104;-56
2021/12/04 06:08:42;;;;;;;0.75;0.40;;;;;;;12.70;51.08;99501.53;5032412;28;20053;-57
2021/12/04 06:11:08;;;;;;;1.08;0.40;;;;;;;12.70;51.83;99501.53;5033655;28;20030;-57
2021/12/04 06:13:33;;;;;;;0.50;0.50;;;;;;;12.71;50.79;99495.13;5033188;28;20029;-58
2021/12/04 06:15:59;;;;;;;3.30;0.30;;;;;;;12.70;51.68;99490.78;5033286;28;20033;-57
2021/12/04 06:18:24;;;;;;;0.40;0.30;;;;;;;12.70;51.34;99493.47;5033504;28;20030;-57
2021/12/04 06:23:34;;;;;;;0.30;0.30;;;;;;;12.69;51.10;99481.88;5033312;28;20056;-57
2021/12/04 06:26:01;;;;;;;2.17;0.45;;;;;;;12.70;51.53;99480.03;5032060;28;20108;-57
2021/12/04 06:28:27;;;;;;;0.52;0.30;;;;;;;12.72;50.94;99488.75;5031905;28;20026;-57
2021/12/04 06:30:54;;;;;;;0.55;0.30;;;;;;;12.71;50.52;99484.38;5033121;28;20032;-57
2021/12/04 06:33:19;;;;;;;0.60;0.50;;;;;;;12.73;51.61;99498.50;5033306;28;20065;-57
2021/12/04 06:35:46;;;;;;;0.30;0.30;;;;;;;12.73;50.47;99488.56;5033021;28;20029;-57
2021/12/04 06:38:14;;;;;;;0.30;0.30;;;;;;;12.74;51.26;99486.72;5031719;28;20029;-57
2021/12/04 06:40:39;;;;;;;2.72;0.70;;;;;;;12.71;50.45;99487.91;5033135;28;20049;-57
2021/12/04 06:43:06;;;;;;;0.93;0.60;;;;;;;12.71;50.51;99497.81;5032753;28;20079;-57
2021/12/04 06:45:33;;;;;;;0.57;0.50;;;;;;;12.71;50.50;99495.13;5033001;28;20493;-57
2021/12/04 06:48:21;;;;;;;0.88;0.50;;;;;;;12.73;51.48;99493.94;5033161;28;20030;-57
2021/12/04 06:50:52;;;;;;;0.45;0.40;;;;;;;12.73;51.08;99485.06;5035757;28;20393;-57
2021/12/04 06:55:47;;;;;;;0.47;0.45;;;;;;;12.77;50.63;99505.19;5036700;28;20082;-57
2021/12/04 06:58:13;;;;;;;3.33;0.60;;;;;;;12.77;51.19;99505.19;5036386;28;20026;-57
2021/12/04 07:00:38;;;;;;;0.90;0.60;;;;;;;12.78;51.34;99509.53;5036313;28;20025;-57
2021/12/04 07:03:04;;;;;;;0.50;0.50;;;;;;;12.77;50.75;99502.50;5036077;28;20160;-58
2021/12/04 07:05:29;;;;;;;0.90;0.60;;;;;;;12.79;51.52;99505.81;5036140;28;20040;-57
2021/12/04 07:07:55;;;;;;;0.38;0.38;;;;;;;12.80;51.09;99512.88;5034778;28;20021;-58
2021/12/04 07:10:20;;;;;;;0.40;0.40;;;;;;;12.79;50.61;99506.66;5034873;28;20056;-58
2021/12/04 07:12:45;;;;;;;0.55;0.50;;;;;;;12.81;50.63;99504.63;5035771;28;20032;-58
2021/12/04 07:15:12;;;;;;;0.80;0.55;;;;;;;12.78;51.49;99499.66;5035818;28;20086;-58
2021/12/04 07:17:38;;;;;;;0.50;0.50;;;;;;;12.81;50.56;99495.75;5036310;28;20474;-57
2021/12/04 07:20:05;;;;;;;0.50;0.50;;;;;;;12.80;50.86;99505.66;5035853;28;20044;-58
2021/12/04 07:22:31;;;;;;;1.30;0.70;;;;;;;12.81;51.38;99509.19;5035643;28;20038;-57
2021/12/04 07:24:57;;;;;;;0.75;0.52;;;;;;;12.81;51.17;99507.31;5035742;28;20055;-57
2021/12/04 07:27:22;;;;;;;0.93;0.52;;;;;;;12.81;51.28;99503.81;5034563;28;20030;-57
2021/12/04 07:29:48;;;;;;;0.45;0.45;;;;;;;12.84;51.11;99500.78;5036143;28;20033;-57
2021/12/04 07:32:13;;;;;;;1.17;0.50;;;;;;;12.86;50.50;99506.81;5035641;28;20045;-57
2021/12/04 07:34:38;;;;;;;0.57;0.50;;;;;;;12.88;51.29;99510.16;5035791;28;20140;-57
2021/12/04 07:37:04;;;;;;;0.98;0.70;;;;;;;12.88;51.54;99506.63;5035594;28;20062;-57
2021/12/04 07:39:29;;;;;;;0.35;0.35;;;;;;;12.85;51.50;99495.22;5035888;28;20057;-58
2021/12/04 07:41:55;;;;;;;0.50;0.50;;;;;;;12.90;51.26;99501.94;5035274;28;20500;-57
2021/12/04 07:44:20;;;;;;;0.50;0.50;;;;;;;12.89;51.45;99495.72;5035414;28;20045;-57
2021/12/04 07:46:45;;;;;;;0.50;0.50;;;;;;;12.90;50.95;99497.38;5035659;28;20029;-58
2021/12/04 07:49:11;;;;;;;0.93;0.60;;;;;;;12.91;50.25;99493.69;5035464;28;20033;-57
2021/12/04 07:51:36;;;;;;;1.40;0.90;;;;;;;12.92;50.33;99492.69;5035474;28;20029;-57
2021/12/04 07:54:02;;;;;;;0.60;0.60;;;;;;;12.93;50.90;99480.88;5035567;28;20113;-58
2021/12/04 07:56:29;;;;;;;2.72;0.45;;;;;;;12.92;50.46;99484.63;5035710;28;20037;-57
2021/12/04 07:58:54;;;;;;;0.77;0.77;;;;;;;12.93;50.61;99480.88;5035435;28;20470;-58
2021/12/04 08:01:20;;;;;;;1.17;0.50;;;;;;;12.94;50.49;99473.66;5033843;28;20036;-58
2021/12/04 08:03:45;;;;;;;1.00;0.85;;;;;;;12.95;50.48;99472.66;5035362;28;20037;-57
2021/12/04 08:06:10;;;;;;;0.85;0.85;;;;;;;12.95;50.29;99468.13;5035295;28;20037;-57
2021/12/04 08:08:36;;;;;;;1.27;0.73;;;;;;;12.97;50.52;99476.84;5035403;28;20113;-57
2021/12/04 08:11:03;;;;;;;0.63;0.57;;;;;;;12.97;51.06;99471.47;5034990;28;20470;-57
2021/12/04 08:13:29;;;;;;;0.60;0.60;;;;;;;12.99;50.86;99484.72;5035047;28;20390;-57
2021/12/04 08:15:54;;;;;;;0.60;0.60;;;;;;;13.00;50.26;99486.41;5034974;28;20029;-57
2021/12/04 08:18:20;;;;;;;0.60;0.60;;;;;;;13.01;51.47;99488.91;5034996;28;20071;-57
2021/12/04 08:20:45;;;;;;;1.02;0.70;;;;;;;13.03;50.71;99481.53;5034995;28;20059;-57
2021/12/04 08:23:11;;;;;;;0.52;0.52;;;;;;;13.05;50.24;99479.47;5033640;28;20224;-57
2021/12/04 08:25:36;;;;;;;1.20;0.90;;;;;;;13.06;50.78;99486.53;5034791;28;20418;-57
2021/12/04 08:28:02;;;;;;;0.93;0.65;;;;;;;13.10;50.98;99476.28;5035200;28;20057;-57
2021/12/04 08:30:31;;;;;;;3.03;0.85;;;;;;;13.13;50.58;99473.25;5035186;28;20040;-58
2021/12/04 08:32:56;;;;;;;0.77;0.77;;;;;;;13.17;50.76;99464.66;5035013;28;20030;-57
2021/12/04 08:35:24;;;;;;;1.67;1.15;;;;;;;13.23;51.04;99468.47;5035088;28;20024;-57
2021/12/04 08:37:51;;;;;;;4.97;1.40;;;;;;;13.27;50.97;99467.94;5034619;28;20072;-57
2021/12/04 08:40:17;;;;;;;0.98;0.90;;;;;;;13.34;50.43;99471.56;5034586;28;20083;-57
2021/12/04 08:42:45;;;;;;;1.10;0.90;;;;;;;13.39;50.03;99457.59;5034194;28;20040;-57
2021/12/04 08:45:13;;;;;;;2.10;0.90;;;;;;;13.43;50.91;99457.03;5034376;28;20044;-57
2021/12/04 08:47:38;;;;;;;2.08;1.30;;;;;;;13.46;50.42;99445.06;5034580;28;20028;-57
2021/12/04 08:50:09;;;;;;;1.65;1.02;;;;;;;13.53;50.78;99451.41;5034311;28;20045;-57
2021/12/04 08:52:36;;;;;;;2.35;1.05;;;;;;;13.57;50.52;99441.13;5044514;28;20021;-57
2021/12/04 08:55:02;;;;;;;1.02;0.93;;;;;;;13.65;50.97;99438.38;5054415;28;20389;-57
2021/12/04 08:57:27;;;;;;;1.33;1.23;;;;;;;13.68;50.86;99435.31;5054256;28;20031;-57
2021/12/04 08:59:53;;;;;;;1.23;1.00;;;;;;;13.71;49.72;99419.59;5054331;28;20033;-57
2021/12/04 09:02:18;;;;;;;2.25;1.33;;;;;;;13.74;49.77;99402.25;5053642;28;20078;-57
2021/12/04 09:04:46;;;;;;;1.95;1.45;;;;;;;13.81;50.89;99413.97;5053662;28;20028;-57
2021/12/04 09:07:12;;;;;;;2.60;1.15;;;;;;;13.84;49.79;99406.38;5053675;28;20150;-57
2021/12/04 09:09:38;;;;;;;1.55;1.17;;;;;;;13.85;50.52;99401.78;5053835;28;20036;-57
2021/12/04 09:12:06;;;;;;;1.83;1.30;;;;;;;13.95;49.82;99413.13;5051864;28;20036;-57
2021/12/04 09:14:34;;;;;;;1.60;1.50;;;;;;;14.01;50.37;99407.03;5053998;28;20031;-57
2021/12/04 09:17:04;;;;;;;2.05;1.42;;;;;;;14.09;50.54;99422.22;5054003;28;20139;-57
2021/12/04 09:19:30;;;;;;;1.88;1.33;;;;;;;14.09;50.18;99430.31;5052728;28;20039;-57
2021/12/04 09:21:57;;;;;;;1.45;1.33;;;;;;;14.09;50.68;99425.78;5054065;28;20021;-57
2021/12/04 09:24:38;;;;;;;1.45;1.35;;;;;;;14.04;50.16;99409.34;5054133;28;20029;-57
2021/12/04 10:13:11;;;;;;;1.70;1.60;;;;;;;15.06;49.90;99382.16;5053737;28;20071;-57
2021/12/04 10:15:58;;;;;;;1.73;1.30;;;;;;;15.03;49.41;99382.53;5053790;28;20104;-57
2021/12/04 10:21:07;;;;;;;2.78;1.13;;;;;;;14.93;49.46;99382.03;5054048;28;20036;-58
2021/12/04 10:34:16;;;;;;;1.55;1.00;;;;;;;14.68;49.16;99344.88;5057081;28;20032;-57
2021/12/04 10:36:41;;;;;;;3.90;1.65;;;;;;;14.65;50.38;99329.06;5038955;28;20024;-58
2021/12/04 10:39:09;;;;;;;1.08;0.98;;;;;;;14.65;49.15;99307.50;5056839;28;20107;-58
2021/12/04 10:41:44;;;;;;;2.25;1.17;;;;;;;14.67;50.33;99316.22;5056600;28;20048;-58
2021/12/04 10:44:20;;;;;;;1.20;1.08;;;;;;;14.67;50.21;99318.94;5055783;28;20052;-58
2021/12/04 10:47:05;;;;;;;1.58;1.20;;;;;;;14.69;48.65;99296.16;5056724;28;20049;-57
2021/12/04 10:49:41;;;;;;;1.60;1.00;;;;;;;14.74;49.35;99290.19;5056617;28;20028;-58
2021/12/04 10:52:20;;;;;;;2.80;1.05;;;;;;;14.79;49.00;99283.19;5056589;28;20040;-57
2021/12/04 10:54:50;;;;;;;2.03;1.02;;;;;;;14.79;50.31;99276.97;5054957;28;20020;-57
2021/12/04 11:00:08;;;;;;;1.33;0.93;;;;;;;14.85;48.77;99276.19;5056538;28;20040;-57
2021/12/04 11:02:36;;;;;;;2.38;1.13;;;;;;;14.86;50.14;99267.06;5056261;28;20033;-57
2021/12/04 11:05:27;;;;;;;1.42;1.20;;;;;;;14.93;50.13;99268.78;5056343;28;20440;-57
2021/12/04 11:18:37;;;;;;;1.55;1.13;;;;;;;14.96;50.02;99252.19;5056452;28;20099;-57
2021/12/04 11:36:14;;;;;;;1.13;0.90;;;;;;;15.05;49.79;99204.34;5055033;28;20047;-58
2021/12/04 11:38:43;;;;;;;2.63;1.27;;;;;;;15.06;49.17;99206.03;5055784;28;20037;-57
2021/12/04 11:43:51;;;;;;;1.45;1.17;;;;;;;15.05;49.07;99190.88;5055974;28;20029;-57
2021/12/04 11:46:22;;;;;;;2.40;2.20;;;;;;;15.03;50.02;99193.78;5055626;28;20108;-57
2021/12/04 11:48:48;;;;;;;4.35;2.92;;;;;;;15.02;48.45;99196.66;5054701;28;20111;-58
2021/12/04 11:51:20;;;;;;;4.85;2.90;;;;;;;14.97;48.87;99197.25;5055268;28;20503;-57
2021/12/04 11:53:46;;;;;;;5.88;2.17;;;;;;;14.94;48.88;99199.50;5055203;28;20079;-58
2021/12/04 11:56:21;;;;;;;3.35;2.08;;;;;;;14.87;49.06;99198.63;5053986;28;20029;-58
2021/12/04 11:58:48;;;;;;;2.42;1.88;;;;;;;14.83;50.60;99198.19;5055582;28;20029;-57
2021/12/04 12:01:32;;;;;;;3.17;1.67;;;;;;;14.73;49.34;99199.56;5037404;28;20468;-57
2021/12/04 12:04:11;;;;;;;2.35;1.80;;;;;;;14.69;50.13;99204.50;5055179;28;20029;-57
2021/12/04 12:06:42;;;;;;;3.90;1.90;;;;;;;14.67;50.80;99209.28;5054981;28;20031;-57
2021/12/04 12:09:15;;;;;;;6.03;2.50;;;;;;;14.63;50.80;99212.56;5054981;28;20028;-57
2021/12/04 12:11:56;;;;;;;3.40;1.80;;;;;;;14.58;50.44;99224.75;5054953;28;20087;-58
2021/12/04 12:14:34;;;;;;;3.83;1.75;;;;;;;14.53;51.00;99224.50;5054844;28;20029;-59
2021/12/04 12:17:00;;;;;;;3.13;1.80;;;;;;;14.49;49.59;99225.06;5054058;28;20032;-59
2021/12/04 12:19:37;;;;;;;2.08;1.67;;;;;;;14.38;50.05;99215.63;5036696;28;20029;-59
2021/12/04 12:22:16;;;;;;;3.63;1.75;;;;;;;14.35;50.00;99223.28;5053687;28;20021;-59
2021/12/04 12:38:40;;;;;;;4.20;2.63;;;;;;;14.14;49.94;99205.22;5054147;28;20456;-59
2021/12/04 12:41:15;;;;;;;3.72;2.38;;;;;;;14.09;50.57;99204.13;5053943;28;20126;-59
2021/12/04 12:44:20;;;;;;;5.47;2.80;;;;;;;14.13;51.17;99211.63;5053259;28;20040;-58
2021/12/04 12:46:48;;;;;;;3.05;2.30;;;;;;;14.12;49.77;99201.06;5045826;28;20044;-58
2021/12/04 12:49:16;;;;;;;4.47;2.78;;;;;;;14.11;51.22;99196.69;5054142;28;20021;-58
2021/12/04 12:51:45;;;;;;;4.78;2.83;;;;;;;14.09;50.00;99188.81;5054249;28;20389;-58
2021/12/04 12:54:25;;;;;;;5.78;2.45;;;;;;;14.08;50.18;99189.84;5054190;28;20036;-59
2021/12/04 12:57:09;;;;;;;4.88;2.75;;;;;;;14.06;50.78;99178.44;5052975;28;20362;-58
2021/12/04 13:11:41;;;;;;;4.88;3.08;;;;;;;14.04;51.59;99179.66;5053687;28;20402;-58
2021/12/04 13:13:25;;;;;;;6.60;2.55;;;;;;;14.01;51.37;99197.03;5053563;28;20439;-58
2021/12/04 13:15:52;;;;;;;3.25;2.47;;;;;;;14.00;50.93;99184.56;5053673;28;20024;-58
2021/12/04 13:18:22;;;;;;;3.35;2.22;;;;;;;13.99;50.66;99199.88;5053607;28;20025;-59
2021/12/04 13:20:53;;;;;;;5.00;2.90;;;;;;;13.96;50.64;99194.06;5053842;28;20382;-59
2021/12/04 13:23:22;;;;;;;3.95;2.25;;;;;;;13.95;51.82;99204.00;5052394;28;20035;-58
2021/12/04 13:25:56;;;;;;;3.35;2.78;;;;;;;13.95;50.52;99206.69;5052320;28;20032;-58
2021/12/04 13:28:25;;;;;;;4.38;2.63;;;;;;;13.89;51.64;99196.69;5053395;28;20060;-58
2021/12/04 13:30:51;;;;;;;5.55;2.90;;;;;;;13.92;50.55;99203.53;5053523;28;20037;-58
2021/12/04 13:33:17;;;;;;;5.60;2.72;;;;;;;13.91;51.56;99207.25;5052758;28;20032;-57
2021/12/04 13:35:45;;;;;;;3.53;2.83;;;;;;;13.89;51.92;99218.22;5053643;28;20033;-57
2021/12/04 13:38:13;;;;;;;4.57;2.83;;;;;;;13.88;51.67;99207.63;5052635;28;20418;-58
2021/12/04 13:40:39;;;;;;;3.90;2.75;;;;;;;13.87;50.97;99227.50;5053250;28;20057;-58
2021/12/04 13:43:12;;;;;;;5.57;2.58;;;;;;;13.85;50.74;99224.16;5052531;28;20501;-58
2021/12/04 13:45:38;;;;;;;5.63;2.92;;;;;;;13.82;51.28;99224.53;5052450;28;20082;-58
2021/12/04 13:48:04;;;;;;;4.75;2.42;;;;;;;13.81;50.88;99228.25;5052657;28;20032;-58
2021/12/04 13:53:03;;;;;;;7.57;2.30;;;;;;;13.75;50.66;99218.25;5052587;28;20032;-59
2021/12/04 13:55:30;;;;;;;4.53;2.42;;;;;;;13.74;51.61;99224.66;5053369;28;20094;-59
2021/12/04 13:57:57;;;;;;;2.30;2.10;;;;;;;13.73;51.27;99236.44;5054246;28;20071;-59
2021/12/04 14:00:23;;;;;;;4.13;2.20;;;;;;;13.72;50.94;99234.78;5057647;28;20032;-59
2021/12/04 14:02:48;;;;;;;3.15;2.28;;;;;;;13.70;50.50;99232.28;5057573;28;20129;-59
2021/12/04 14:05:21;;;;;;;3.63;2.35;;;;;;;13.65;51.37;99229.28;5056226;28;20176;-60
2021/12/04 14:07:53;;;;;;;4.38;2.50;;;;;;;13.68;52.13;99241.56;5057440;28;20028;-58
2021/12/04 14:10:19;;;;;;;3.58;1.98;;;;;;;13.67;51.66;99231.81;5057322;28;20363;-58
2021/12/04 14:12:45;;;;;;;2.90;2.28;;;;;;;13.65;50.77;99233.88;5057192;28;20104;-58
2021/12/04 14:15:14;;;;;;;4.63;2.25;;;;;;;13.64;51.83;99237.56;5056179;28;20029;-59
2021/12/04 14:17:39;;;;;;;3.55;2.67;;;;;;;13.63;50.89;99249.34;5039526;28;20029;-59
2021/12/04 14:20:06;;;;;;;2.90;1.73;;;;;;;13.62;51.52;99234.25;5055912;28;20025;-59
2021/12/04 14:22:32;;;;;;;4.18;1.75;;;;;;;13.61;51.87;99248.72;5056238;28;20428;-58
2021/12/04 14:24:59;;;;;;;3.90;2.53;;;;;;;13.61;52.00;99254.09;5056685;28;20032;-58
2021/12/04 14:27:30;;;;;;;5.00;2.90;;;;;;;13.60;51.55;99252.41;5055737;28;20086;-58
2021/12/04 14:29:59;;;;;;;7.40;2.90;;;;;;;13.60;50.76;99253.25;5055797;28;20060;-58
2021/12/04 14:32:30;;;;;;;7.78;3.22;;;;;;;13.58;51.12;99233.78;5057124;28;20107;-58
2021/12/04 14:35:04;;;;;;;9.13;3.00;;;;;;;13.55;52.13;99244.06;5056995;28;20013;-58
2021/12/04 14:37:41;;;;;;;5.07;2.03;;;;;;;13.55;51.04;99254.81;5039332;28;20370;-57
2021/12/04 14:40:09;;;;;;;5.13;2.45;;;;;;;13.53;51.76;99251.50;5056630;28;20054;-57
2021/12/04 14:42:36;;;;;;;4.28;2.58;;;;;;;13.51;52.00;99258.94;5055694;28;20396;-59